Aviation Digital Data Service (ADDS)

Output produced by METARs form (0052 UTC 18 November 2017)
found at http://aviationweather.gov/adds/metars/
 
KILG 172337Z 1800/1824 VRB03KT P6SM FEW150 
     FM181500 19008KT P6SM BKN150 
     FM181800 19012KT 6SM -SHRA BKN050